Hauptseite
METAR-TAF:

METAR-TAF

Flughäfen :

RAF Fairford

Fairford, England

Breite: 51-41N, Länge: 001-47W, Höhe: 87 m

Beobachtung

Neuester Wetterbericht von vor 1 Stunde und 23 Minuten, um 14:50 UTC
Wind 7 kt aus West/Südwest
Temperatur 26°C
Luftfeuchtigkeit 42%
Luftdruck 1012 hPa
Sichtweite 10 km oder mehr
Leicht bewölkt in der Höhe von 4500 ft

METAR: EGVA 161450Z 24007KT 9999 FEW045 26/12 Q1012 BLU NOSIG

Zeit: 17:13 (16:13 UTC)

Prognose

Neuester Wetterbericht von vor 2 Stunden und 51 Minuten, um 13:22 UTC
Gültige Prognose vom 16 um 15 UTC bis 16 um 18 UTC
Wind 7 kt aus Südwest
Sichtweite 10 km oder mehr
Leicht bewölkt in der Höhe von 4000 ft

TAF: EGVA 161322Z 1615/1618 23007KT 9999 FEW040

Wetterbeobachtungen und Prognosen von mehr als 4000 Flughäfen (METAR und TAF Bericht).

Die verfügbaren Stationen werden durch gelbe und rote Markierungen auf der Karte dargestellt.

Führen Sie die Maus auf sie, um den Namen der Station zu sehen.

Darauf klicken, um die Beobachtung von Wetterbeobachtungen und Prognosen zu sehen.

Um die Karte zu ändern : klicken Sie auf den grünen Tasten mit einem schwarzen Kreuz Zum Vergrößern, auf den grünen Button mit einem Gedankenstrich zu verkleinern, oder auf die grünen Pfeile für benachbarte Karten.


METAR-TAF: